Time;durP1;ratioP1;P1;durP2;ratioP2;P2;SDS_P1;SDS_P2;PMS_P1;PMS_P2;Temp;Humidity;BMP_temperature;BMP_pressure;BME280_temperature;BME280_humidity;BME280_pressure;Samples;Min_cycle;Max_cycle;Signal;HPM_P1;HPM_P2
2022/01/04 00:01:35;;;;;;;22.58;10.60;;;11.60;64.90;;;;;;6341428;27;20093;-68
2022/01/04 00:04:36;;;;;;;29.63;11.32;;;11.50;64.90;;;;;;6325330;28;20035;-67
2022/01/04 00:07:37;;;;;;;25.60;11.70;;;11.50;65.00;;;;;;6351408;27;20084;-67
2022/01/04 00:10:38;;;;;;;24.38;11.35;;;11.50;65.10;;;;;;6355057;27;20046;-68
2022/01/04 00:13:39;;;;;;;31.38;11.65;;;11.50;65.10;;;;;;6380733;27;20019;-68
2022/01/04 00:16:41;;;;;;;24.23;11.13;;;11.50;65.10;;;;;;6398732;27;20035;-67
2022/01/04 00:19:42;;;;;;;25.27;11.70;;;11.50;65.10;;;;;;6379975;27;20109;-67
2022/01/04 00:22:43;;;;;;;22.65;9.88;;;11.60;65.00;;;;;;6362378;27;20358;-67
2022/01/04 00:25:44;;;;;;;23.92;10.52;;;11.50;64.80;;;;;;6363384;27;20031;-67
2022/01/04 00:28:45;;;;;;;22.88;9.77;;;11.50;64.80;;;;;;6397031;27;20026;-67
2022/01/04 00:31:46;;;;;;;23.63;11.90;;;11.50;64.80;;;;;;6398715;27;20083;-67
2022/01/04 00:34:48;;;;;;;23.70;11.77;;;11.60;64.90;;;;;;6396368;27;20041;-67
2022/01/04 00:37:49;;;;;;;21.13;10.10;;;11.60;65.00;;;;;;6398926;27;20099;-67
2022/01/04 00:40:50;;;;;;;22.92;11.07;;;11.60;64.80;;;;;;6398974;27;20354;-68
2022/01/04 00:43:51;;;;;;;34.53;11.55;;;11.60;64.70;;;;;;6338090;28;20030;-67
2022/01/04 00:46:52;;;;;;;27.05;10.82;;;11.60;64.70;;;;;;6338229;28;20099;-67
2022/01/04 00:49:54;;;;;;;22.13;10.48;;;11.60;64.80;;;;;;6371788;28;20031;-67
2022/01/04 00:52:56;;;;;;;19.42;10.13;;;11.60;64.80;;;;;;6355105;28;20086;-67
2022/01/04 00:55:57;;;;;;;23.23;10.65;;;11.60;64.90;;;;;;6373041;27;20039;-68
2022/01/04 00:58:57;;;;;;;25.55;10.30;;;11.60;64.70;;;;;;6359533;27;20376;-68
2022/01/04 01:01:58;;;;;;;24.90;11.35;;;11.60;64.70;;;;;;6382424;27;20023;-67
2022/01/04 01:05:00;;;;;;;28.15;11.02;;;11.60;64.60;;;;;;6355180;27;20031;-68
2022/01/04 01:08:01;;;;;;;26.13;10.93;;;11.70;64.60;;;;;;6368291;27;20031;-69
2022/01/04 01:11:04;;;;;;;20.52;10.25;;;11.60;64.50;;;;;;6375194;27;20572;-66
2022/01/04 01:14:06;;;;;;;31.52;11.45;;;11.70;64.60;;;;;;6363310;27;20038;-67
2022/01/04 01:17:07;;;;;;;26.02;10.73;;;11.70;64.50;;;;;;6344153;27;20035;-68
2022/01/04 01:20:09;;;;;;;23.17;10.75;;;11.70;64.60;;;;;;6360817;27;20046;-67
2022/01/04 01:23:11;;;;;;;26.10;11.15;;;11.70;64.50;;;;;;6360721;27;20455;-68
2022/01/04 01:26:12;;;;;;;26.65;11.82;;;11.60;64.40;;;;;;6379001;27;20046;-68
2022/01/04 01:29:13;;;;;;;24.67;10.88;;;11.60;64.50;;;;;;6377232;27;20585;-68
2022/01/04 01:32:14;;;;;;;20.48;10.40;;;11.70;64.60;;;;;;6349866;27;20059;-67
2022/01/04 01:35:15;;;;;;;29.10;11.15;;;11.60;64.50;;;;;;6374696;27;20054;-66
2022/01/04 01:38:19;;;;;;;22.75;9.68;;;11.50;64.50;;;;;;6360738;27;20447;-69
2022/01/04 01:41:20;;;;;;;23.33;11.32;;;11.50;64.70;;;;;;6404384;27;20077;-69
2022/01/04 01:44:22;;;;;;;25.60;9.88;;;11.50;64.80;;;;;;6342865;27;20024;-67
2022/01/04 01:47:23;;;;;;;29.20;11.00;;;11.50;64.80;;;;;;6360172;27;20118;-67
2022/01/04 01:50:24;;;;;;;23.65;10.82;;;11.50;64.80;;;;;;6358861;27;20036;-67
2022/01/04 01:53:25;;;;;;;22.58;10.27;;;11.50;64.60;;;;;;6342864;27;20027;-69
2022/01/04 01:56:29;;;;;;;26.25;9.05;;;11.60;64.60;;;;;;6342799;27;20479;-66
2022/01/04 01:59:30;;;;;;;23.13;10.35;;;11.60;64.50;;;;;;6350482;27;20039;-67
2022/01/04 02:02:31;;;;;;;22.35;9.88;;;11.60;64.50;;;;;;6375886;27;20426;-67
2022/01/04 02:05:32;;;;;;;29.10;12.18;;;11.60;64.60;;;;;;6377738;27;20035;-67
2022/01/04 02:08:33;;;;;;;19.52;9.55;;;11.60;64.50;;;;;;6332410;27;20057;-67
2022/01/04 02:11:35;;;;;;;25.98;10.70;;;11.60;64.40;;;;;;6342607;27;20372;-68
2022/01/04 02:14:36;;;;;;;29.02;11.10;;;11.60;64.20;;;;;;6368081;27;20383;-67
2022/01/04 02:17:38;;;;;;;22.52;10.20;;;11.60;64.30;;;;;;6359266;27;20448;-67
2022/01/04 02:20:39;;;;;;;28.27;9.85;;;11.50;64.40;;;;;;6376885;27;20046;-67
2022/01/04 02:23:40;;;;;;;21.38;9.85;;;11.50;64.40;;;;;;6342412;27;20463;-67
2022/01/04 02:26:42;;;;;;;20.35;10.35;;;11.50;64.60;;;;;;6359314;27;20027;-67
2022/01/04 02:29:44;;;;;;;23.15;9.93;;;11.50;64.60;;;;;;6401325;27;20057;-67
2022/01/04 02:32:46;;;;;;;24.55;9.73;;;11.50;64.60;;;;;;6400685;27;20050;-66
2022/01/04 02:35:47;;;;;;;20.98;9.65;;;11.50;64.60;;;;;;6401438;27;20034;-67
2022/01/04 02:38:51;;;;;;;26.25;11.13;;;11.40;64.60;;;;;;6402727;27;20022;-67
2022/01/04 02:41:52;;;;;;;25.98;10.48;;;11.40;64.80;;;;;;6402545;27;20035;-68
2022/01/04 02:44:53;;;;;;;20.08;9.00;;;11.40;64.80;;;;;;6384330;27;20033;-67
2022/01/04 02:47:54;;;;;;;24.20;9.35;;;11.40;64.90;;;;;;6401737;27;20026;-67
2022/01/04 02:50:56;;;;;;;18.63;7.50;;;11.40;64.80;;;;;;6384324;27;20490;-67
2022/01/04 02:53:57;;;;;;;19.52;7.78;;;11.30;64.60;;;;;;6383190;27;20098;-67
2022/01/04 02:56:58;;;;;;;17.48;7.85;;;11.30;64.70;;;;;;6402330;27;20459;-68
2022/01/04 02:59:59;;;;;;;18.30;8.63;;;11.40;64.80;;;;;;6364590;27;20045;-67
2022/01/04 03:03:00;;;;;;;13.95;7.47;;;11.40;64.60;;;;;;6368050;27;20031;-67
2022/01/04 03:06:01;;;;;;;20.15;8.80;;;11.40;64.60;;;;;;6365936;27;20062;-67
2022/01/04 03:09:06;;;;;;;23.77;9.60;;;11.40;64.50;;;;;;6360180;27;20031;-67
2022/01/04 03:12:08;;;;;;;15.15;7.45;;;11.40;64.60;;;;;;6315529;28;20119;-67
2022/01/04 03:15:11;;;;;;;19.98;7.97;;;11.40;64.60;;;;;;6350873;28;20160;-67
2022/01/04 03:18:13;;;;;;;23.40;9.00;;;11.40;64.50;;;;;;6376017;27;20054;-67
2022/01/04 03:21:14;;;;;;;19.88;8.77;;;11.40;64.40;;;;;;6375132;27;20034;-67
2022/01/04 03:24:16;;;;;;;20.52;8.43;;;11.40;64.60;;;;;;6392721;27;20352;-68
2022/01/04 03:27:19;;;;;;;17.08;8.02;;;11.40;64.50;;;;;;6401245;27;20039;-67
2022/01/04 03:30:20;;;;;;;19.38;9.02;;;11.50;64.50;;;;;;6400716;27;20502;-67
2022/01/04 03:33:21;;;;;;;18.85;9.70;;;11.50;64.40;;;;;;6389258;27;20071;-67
2022/01/04 03:36:24;;;;;;;21.70;9.40;;;11.50;64.20;;;;;;6348635;28;20143;-67
2022/01/04 03:39:25;;;;;;;16.80;8.65;;;11.50;64.20;;;;;;6332251;28;20051;-67
2022/01/04 03:42:26;;;;;;;22.85;8.93;;;11.60;64.30;;;;;;6397276;27;20023;-67
2022/01/04 03:45:27;;;;;;;22.20;9.65;;;11.60;64.20;;;;;;6383042;27;20121;-68
2022/01/04 03:48:28;;;;;;;20.08;9.38;;;11.60;64.20;;;;;;6398219;27;20131;-68
2022/01/04 03:51:29;;;;;;;16.63;8.25;;;11.60;64.20;;;;;;6375037;27;20074;-67
2022/01/04 03:54:30;;;;;;;21.30;9.70;;;11.60;64.20;;;;;;6340082;27;20062;-67
2022/01/04 03:57:31;;;;;;;20.88;9.43;;;11.60;64.00;;;;;;6347047;27;20091;-67
2022/01/04 04:00:32;;;;;;;22.45;10.30;;;11.70;64.20;;;;;;6374413;27;20035;-67
2022/01/04 04:03:34;;;;;;;23.20;9.52;;;11.70;64.00;;;;;;6353909;27;20417;-67
2022/01/04 04:06:35;;;;;;;17.77;9.23;;;11.60;63.90;;;;;;6356569;27;20488;-67
2022/01/04 04:09:36;;;;;;;18.83;8.80;;;11.60;64.00;;;;;;6355647;27;20040;-67
2022/01/04 04:12:37;;;;;;;30.38;9.32;;;11.60;64.10;;;;;;6356439;27;20473;-68
2022/01/04 04:15:41;;;;;;;21.08;9.13;;;11.70;64.20;;;;;;6374914;27;20038;-68
2022/01/04 04:18:43;;;;;;;26.13;10.43;;;11.60;64.10;;;;;;6374030;27;20069;-68
2022/01/04 04:21:44;;;;;;;20.27;10.13;;;11.60;64.10;;;;;;6356423;27;20421;-68
2022/01/04 04:24:45;;;;;;;23.27;10.27;;;11.60;64.20;;;;;;6356200;27;20478;-68
2022/01/04 04:27:46;;;;;;;24.05;9.52;;;11.50;64.30;;;;;;6373885;27;20030;-68
2022/01/04 04:30:47;;;;;;;21.92;10.30;;;11.40;64.40;;;;;;6373688;27;20042;-68
2022/01/04 04:33:48;;;;;;;23.65;10.18;;;11.40;64.60;;;;;;6353295;27;20023;-68
2022/01/04 04:36:49;;;;;;;24.02;9.35;;;11.40;64.80;;;;;;6374038;27;20035;-68
2022/01/04 04:39:50;;;;;;;20.00;8.63;;;11.40;64.90;;;;;;6356980;28;20103;-68
2022/01/04 04:42:51;;;;;;;26.00;9.68;;;11.30;64.80;;;;;;6374573;28;20031;-68
2022/01/04 04:45:52;;;;;;;24.95;8.65;;;11.30;64.90;;;;;;6374249;28;20032;-67
2022/01/04 04:48:53;;;;;;;23.25;9.00;;;11.30;64.90;;;;;;6355172;28;20035;-67
2022/01/04 04:51:57;;;;;;;27.08;9.77;;;11.30;65.00;;;;;;6372999;28;20164;-68
2022/01/04 04:54:58;;;;;;;19.88;9.90;;;11.30;65.00;;;;;;6374399;28;20027;-68
2022/01/04 04:57:59;;;;;;;21.63;9.18;;;11.40;65.00;;;;;;6369937;28;20039;-68
2022/01/04 05:01:00;;;;;;;15.70;8.18;;;11.40;64.80;;;;;;6373070;28;20137;-68
2022/01/04 05:04:02;;;;;;;23.58;9.85;;;11.50;64.80;;;;;;6372441;28;20039;-68
2022/01/04 05:07:04;;;;;;;22.40;8.00;;;11.50;64.70;;;;;;6373872;28;20471;-67
2022/01/04 05:10:07;;;;;;;20.67;9.18;;;11.60;64.50;;;;;;6374146;28;20046;-66
2022/01/04 05:13:08;;;;;;;18.10;8.70;;;11.60;64.50;;;;;;6381531;27;20149;-66
2022/01/04 05:16:10;;;;;;;19.50;9.43;;;11.70;64.50;;;;;;6399499;27;20143;-66
2022/01/04 05:19:11;;;;;;;16.65;8.32;;;11.70;64.40;;;;;;6381460;27;20126;-67
2022/01/04 05:22:12;;;;;;;19.40;9.65;;;11.70;64.30;;;;;;6373635;28;20035;-67
2022/01/04 05:25:13;;;;;;;19.05;8.68;;;11.80;64.40;;;;;;6355780;28;20046;-67
2022/01/04 05:28:14;;;;;;;22.85;10.13;;;11.80;64.30;;;;;;6355050;28;20063;-67
2022/01/04 05:31:15;;;;;;;16.77;8.57;;;11.80;64.20;;;;;;6372637;27;20031;-67
2022/01/04 05:34:16;;;;;;;19.35;9.00;;;11.80;64.20;;;;;;6368614;27;20035;-67
2022/01/04 05:37:17;;;;;;;18.83;8.80;;;11.90;64.10;;;;;;6373480;28;20039;-67
2022/01/04 05:40:19;;;;;;;22.88;9.20;;;11.90;64.00;;;;;;6355681;28;20386;-69
2022/01/04 05:43:20;;;;;;;24.10;9.82;;;11.90;64.00;;;;;;6355841;27;20050;-68
2022/01/04 05:46:21;;;;;;;23.40;9.65;;;11.90;64.20;;;;;;6354917;27;20039;-67
2022/01/04 05:49:23;;;;;;;21.48;8.95;;;11.90;64.00;;;;;;6359690;27;20039;-67
2022/01/04 05:52:24;;;;;;;23.65;8.32;;;11.80;64.10;;;;;;6359749;27;20463;-67
2022/01/04 05:55:25;;;;;;;20.67;8.95;;;11.80;64.10;;;;;;6359933;27;20039;-68
2022/01/04 05:58:26;;;;;;;18.88;8.65;;;11.80;64.10;;;;;;6350633;27;20118;-68
2022/01/04 06:01:27;;;;;;;18.20;8.80;;;11.80;64.10;;;;;;6403883;27;20127;-70
2022/01/04 06:04:28;;;;;;;18.70;8.32;;;11.70;64.20;;;;;;6383316;27;20140;-69
2022/01/04 06:07:29;;;;;;;19.95;8.95;;;11.70;64.20;;;;;;6403624;27;20038;-69
2022/01/04 06:10:37;;;;;;;19.33;9.60;;;11.70;64.40;;;;;;6402255;27;20065;-70
2022/01/04 06:16:58;;;;;;;17.92;9.07;;;11.70;64.50;;;;;;6378693;27;20039;-68
2022/01/04 06:20:00;;;;;;;19.58;9.25;;;11.70;64.50;;;;;;6401091;27;20071;-68
2022/01/04 06:23:02;;;;;;;21.20;9.75;;;11.60;64.40;;;;;;6369356;27;20460;-68
2022/01/04 06:26:03;;;;;;;22.65;9.98;;;11.60;64.50;;;;;;6361136;27;20042;-69
2022/01/04 06:29:04;;;;;;;19.33;9.07;;;11.60;64.50;;;;;;6369269;27;20041;-69
2022/01/04 06:32:06;;;;;;;17.85;9.07;;;11.60;64.50;;;;;;6369321;27;20376;-69
2022/01/04 06:35:07;;;;;;;21.05;9.68;;;11.60;64.50;;;;;;6369134;27;20069;-69
2022/01/04 06:38:08;;;;;;;20.15;8.48;;;11.70;64.50;;;;;;6352912;27;20042;-69
2022/01/04 06:41:09;;;;;;;21.27;10.15;;;11.70;64.50;;;;;;6387853;27;20026;-68
2022/01/04 06:44:11;;;;;;;21.00;8.82;;;11.60;64.40;;;;;;6386743;27;20050;-69
2022/01/04 06:47:12;;;;;;;29.17;10.35;;;11.70;64.50;;;;;;6387438;27;20031;-68
2022/01/04 06:50:15;;;;;;;28.23;10.68;;;11.70;64.30;;;;;;6368703;27;20114;-70
2022/01/04 06:53:16;;;;;;;17.05;8.60;;;11.70;64.30;;;;;;6380732;27;20089;-69
2022/01/04 06:56:17;;;;;;;21.90;9.27;;;11.70;64.40;;;;;;6375328;27;20034;-69
2022/01/04 06:59:19;;;;;;;22.35;8.75;;;11.60;64.30;;;;;;6400701;27;20031;-68
2022/01/04 07:02:20;;;;;;;16.48;8.95;;;11.60;64.50;;;;;;6382116;27;20042;-69
2022/01/04 07:05:22;;;;;;;22.95;9.73;;;11.50;64.60;;;;;;6382895;27;20027;-69
2022/01/04 07:08:23;;;;;;;22.73;9.68;;;11.50;64.70;;;;;;6398977;27;20030;-68
2022/01/04 07:11:24;;;;;;;18.83;9.35;;;11.50;64.80;;;;;;6383348;27;20042;-69
2022/01/04 07:14:25;;;;;;;23.30;9.20;;;11.40;64.80;;;;;;6381918;27;20045;-69
2022/01/04 07:17:26;;;;;;;21.38;8.80;;;11.40;65.00;;;;;;6382954;27;20031;-69
2022/01/04 07:20:27;;;;;;;21.88;8.02;;;11.30;65.20;;;;;;6400134;27;20037;-69
2022/01/04 07:23:29;;;;;;;25.25;7.85;;;11.20;65.30;;;;;;6381701;27;20030;-69
2022/01/04 07:26:30;;;;;;;17.17;8.18;;;11.20;65.50;;;;;;6383026;27;20031;-69
2022/01/04 07:29:31;;;;;;;19.33;8.23;;;11.20;65.70;;;;;;6380866;27;20114;-68
2022/01/04 07:32:33;;;;;;;20.80;9.15;;;11.10;65.70;;;;;;6399999;27;20035;-70
2022/01/04 07:35:34;;;;;;;16.77;7.70;;;11.10;65.80;;;;;;6363807;27;20171;-69
2022/01/04 07:38:36;;;;;;;21.35;8.52;;;11.10;65.90;;;;;;6382182;27;20055;-69
2022/01/04 07:41:37;;;;;;;23.52;9.75;;;11.10;66.00;;;;;;6382373;27;20034;-69
2022/01/04 07:44:39;;;;;;;22.50;9.65;;;11.00;66.80;;;;;;6381053;27;20463;-69
2022/01/04 07:47:43;;;;;;;22.35;7.95;;;11.00;66.10;;;;;;6382078;27;20027;-70
2022/01/04 07:50:44;;;;;;;18.70;7.95;;;11.00;66.20;;;;;;6371059;27;20091;-69
2022/01/04 07:53:46;;;;;;;20.17;7.32;;;11.00;66.30;;;;;;6342559;27;20408;-68
2022/01/04 07:56:48;;;;;;;14.30;7.38;;;11.10;66.30;;;;;;6377998;27;20340;-69
2022/01/04 07:59:51;;;;;;;14.50;7.35;;;11.20;66.10;;;;;;6374673;27;20031;-69
2022/01/04 08:02:57;;;;;;;21.65;9.45;;;11.30;65.90;;;;;;6352811;27;20040;-69
2022/01/04 08:06:00;;;;;;;18.40;9.13;;;11.40;65.70;;;;;;6343071;28;20047;-69
2022/01/04 08:09:04;;;;;;;17.55;8.98;;;11.50;65.50;;;;;;6344950;28;20035;-69
2022/01/04 08:12:07;;;;;;;27.15;10.05;;;11.60;65.30;;;;;;6347402;28;20051;-69
2022/01/04 08:15:09;;;;;;;28.27;10.18;;;11.70;65.20;;;;;;6373187;27;20047;-69
2022/01/04 08:18:10;;;;;;;21.65;8.80;;;11.70;64.90;;;;;;6356004;27;20043;-69
2022/01/04 08:21:11;;;;;;;22.88;8.82;;;11.70;64.80;;;;;;6373599;27;20376;-69
2022/01/04 08:24:14;;;;;;;19.35;8.68;;;11.70;64.70;;;;;;6356132;27;20135;-68
2022/01/04 08:27:16;;;;;;;16.23;7.38;;;11.80;64.60;;;;;;6381416;27;20026;-69
2022/01/04 08:30:18;;;;;;;19.58;7.47;;;11.70;64.30;;;;;;6380469;27;20050;-69
2022/01/04 08:33:19;;;;;;;16.70;7.90;;;11.70;64.30;;;;;;6379588;27;20035;-68
2022/01/04 08:36:27;;;;;;;20.60;7.60;;;11.70;64.20;;;;;;6340756;28;20043;-69
2022/01/04 08:39:28;;;;;;;19.40;7.20;;;11.70;64.20;;;;;;6347775;28;20042;-69
2022/01/04 08:42:29;;;;;;;23.48;7.82;;;11.70;64.20;;;;;;6347202;28;20132;-69
2022/01/04 08:45:30;;;;;;;25.13;7.13;;;11.70;64.30;;;;;;6345983;28;20031;-68
2022/01/04 08:48:31;;;;;;;20.98;6.85;;;11.70;64.60;;;;;;6330042;28;20036;-69
2022/01/04 08:51:32;;;;;;;16.48;6.70;;;11.70;64.90;;;;;;6345752;28;20046;-68
2022/01/04 08:54:34;;;;;;;13.63;6.78;;;11.80;65.80;;;;;;6347228;28;20452;-69
2022/01/04 08:57:36;;;;;;;15.35;5.93;;;11.90;65.10;;;;;;6346960;28;20043;-68
2022/01/04 09:00:37;;;;;;;20.08;7.13;;;11.90;65.10;;;;;;6346625;28;20420;-69
2022/01/04 09:03:38;;;;;;;14.50;6.32;;;12.00;65.10;;;;;;6345483;28;20138;-69
2022/01/04 09:06:40;;;;;;;19.20;7.60;;;12.20;65.10;;;;;;6347793;28;20051;-69
2022/01/04 09:09:41;;;;;;;20.73;7.63;;;12.40;64.90;;;;;;6347924;28;20046;-69
2022/01/04 09:12:53;;;;;;;19.17;6.65;;;12.50;64.70;;;;;;6347681;28;20485;-69
2022/01/04 09:19:01;;;;;;;13.10;6.32;;;12.80;64.10;;;;;;6324627;28;20119;-68
2022/01/04 09:22:04;;;;;;;14.45;6.35;;;12.90;64.00;;;;;;6347577;28;20469;-69
2022/01/04 09:25:06;;;;;;;21.02;7.03;;;12.90;63.90;;;;;;6334284;28;20039;-69
2022/01/04 09:28:08;;;;;;;15.27;6.68;;;12.90;64.00;;;;;;6326988;28;20040;-69
2022/01/04 09:31:11;;;;;;;18.48;7.13;;;13.00;64.10;;;;;;6332638;28;20511;-70
2022/01/04 09:34:12;;;;;;;21.00;6.78;;;13.00;64.20;;;;;;6322540;28;20432;-69
2022/01/04 09:37:13;;;;;;;25.58;6.72;;;13.10;64.10;;;;;;6372602;27;20518;-69
2022/01/04 09:40:14;;;;;;;23.55;6.32;;;13.20;64.20;;;;;;6377474;27;20360;-69
2022/01/04 09:43:17;;;;;;;16.00;6.65;;;13.30;64.10;;;;;;6377092;27;20063;-69
2022/01/04 09:46:20;;;;;;;13.07;5.93;;;13.40;63.90;;;;;;6342294;28;20035;-69
2022/01/04 09:49:22;;;;;;;15.90;6.80;;;13.50;63.80;;;;;;6348178;27;20031;-69
2022/01/04 09:52:23;;;;;;;14.45;6.15;;;13.60;63.60;;;;;;6376168;27;20371;-69
2022/01/04 09:55:24;;;;;;;14.40;5.85;;;13.60;63.50;;;;;;6377131;27;20114;-69
2022/01/04 09:58:26;;;;;;;16.70;6.93;;;13.60;63.60;;;;;;6376492;27;20039;-69
2022/01/04 10:01:34;;;;;;;12.52;5.57;;;13.50;63.70;;;;;;6358510;27;20329;-69
2022/01/04 10:04:35;;;;;;;;;;;13.50;64.10;;;;;;6360446;27;20031;-69
2022/01/04 10:07:38;;;;;;;24.58;6.20;;;13.50;64.30;;;;;;6358758;27;19918;-69
2022/01/04 10:10:41;;;;;;;19.23;5.95;;;13.50;64.40;;;;;;6358356;27;20317;-69
2022/01/04 10:13:42;;;;;;;17.92;6.32;;;13.50;64.60;;;;;;6341645;28;20020;-70
2022/01/04 10:16:53;;;;;;;20.48;6.22;;;13.50;64.40;;;;;;6333498;28;20437;-69
2022/01/04 10:19:57;;;;;;;14.55;6.03;;;13.60;64.50;;;;;;6339989;28;20342;-69
2022/01/04 10:23:12;;;;;;;12.00;5.70;;;13.60;64.40;;;;;;6349225;28;20118;-69
2022/01/04 10:26:13;;;;;;;20.20;6.88;;;13.70;64.40;;;;;;6338531;27;20118;-69
2022/01/04 10:29:22;;;;;;;11.05;5.57;;;13.70;64.40;;;;;;6339554;27;20041;-69
2022/01/04 10:32:23;;;;;;;;;;;13.70;64.40;;;;;;6371072;27;20043;-69
2022/01/04 10:35:30;;;;;;;13.45;6.05;;;13.80;64.30;;;;;;6355727;27;19934;-70
2022/01/04 10:38:36;;;;;;;11.15;5.97;;;13.90;64.20;;;;;;6355784;27;20027;-69
2022/01/04 10:41:37;;;;;;;17.25;6.20;;;14.00;64.10;;;;;;6355736;27;20034;-71
2022/01/04 10:44:39;;;;;;;15.35;6.60;;;14.00;64.00;;;;;;6372845;27;20520;-69
2022/01/04 10:47:40;;;;;;;21.45;6.75;;;14.10;63.90;;;;;;6354830;27;20035;-68
2022/01/04 10:50:43;;;;;;;13.98;6.13;;;14.20;63.50;;;;;;6354434;27;20031;-70
2022/01/04 10:53:57;;;;;;;21.70;7.50;;;14.30;63.40;;;;;;6373546;27;20452;-69
2022/01/04 10:57:08;;;;;;;17.58;6.18;;;14.40;63.20;;;;;;6381347;27;20038;-70
2022/01/04 11:00:20;;;;;;;17.73;7.25;;;14.50;62.80;;;;;;6379396;27;20062;-69
2022/01/04 11:03:26;;;;;;;16.92;6.93;;;14.60;62.60;;;;;;6358890;27;20068;-69
2022/01/04 11:06:36;;;;;;;15.02;6.72;;;14.70;62.20;;;;;;6346393;28;20031;-69
2022/01/04 11:09:37;;;;;;;19.63;7.28;;;14.80;61.90;;;;;;6356162;27;20055;-69
2022/01/04 11:12:38;;;;;;;18.65;7.22;;;14.90;61.50;;;;;;6354303;27;20023;-69
2022/01/04 11:15:39;;;;;;;20.95;7.63;;;15.00;61.10;;;;;;6371408;27;20031;-69
2022/01/04 11:18:41;;;;;;;17.00;7.47;;;15.10;60.60;;;;;;6354422;27;20032;-70
2022/01/04 11:21:43;;;;;;;24.65;9.38;;;15.20;60.40;;;;;;6349968;27;20107;-69
2022/01/04 11:24:46;;;;;;;19.50;8.32;;;15.20;60.20;;;;;;6347128;28;20353;-69
2022/01/04 11:27:47;;;;;;;19.17;8.73;;;15.30;60.10;;;;;;6329218;28;20116;-68
2022/01/04 11:31:02;;;;;;;19.63;7.82;;;15.40;59.90;;;;;;6350552;27;20056;-69
2022/01/04 11:34:14;;;;;;;17.92;7.53;;;15.50;59.70;;;;;;6352876;27;20099;-69
2022/01/04 11:37:20;;;;;;;23.45;8.20;;;15.60;59.50;;;;;;6355491;27;20125;-69
2022/01/04 11:40:36;;;;;;;20.83;6.40;;;15.60;59.30;;;;;;6376621;27;20030;-69
2022/01/04 11:43:39;;;;;;;17.77;6.82;;;15.60;59.10;;;;;;6402205;27;20027;-70
2022/01/04 11:46:40;;;;;;;19.83;7.80;;;15.70;58.70;;;;;;6346373;28;20357;-69
2022/01/04 11:50:10;;;;;;;19.52;8.15;;;15.80;58.50;;;;;;6358720;27;20374;-70
2022/01/04 11:53:11;;;;;;;23.25;9.05;;;15.70;58.60;;;;;;6382995;27;20056;-71
2022/01/04 11:56:12;;;;;;;17.85;7.45;;;15.70;58.60;;;;;;6383097;27;20049;-71
2022/01/04 11:59:25;;;;;;;23.52;6.40;;;15.70;58.60;;;;;;6411614;27;20034;-70
2022/01/04 12:02:31;;;;;;;24.65;7.20;;;15.70;58.60;;;;;;6415991;27;20083;-71
2022/01/04 12:05:35;;;;;;;21.20;7.10;;;15.80;58.50;;;;;;6374915;27;20084;-69
2022/01/04 12:08:47;;;;;;;17.20;6.97;;;15.80;58.40;;;;;;6385099;27;20045;-70
2022/01/04 12:11:49;;;;;;;21.70;7.63;;;15.80;58.40;;;;;;6367499;27;20352;-70
2022/01/04 12:14:50;;;;;;;15.15;7.05;;;15.80;58.20;;;;;;6368548;27;20467;-70
2022/01/04 12:17:51;;;;;;;15.88;6.97;;;15.70;58.30;;;;;;6339305;27;20035;-69
2022/01/04 12:20:53;;;;;;;18.58;7.13;;;15.80;58.30;;;;;;6349164;27;20080;-69
2022/01/04 12:23:56;;;;;;;15.10;6.57;;;15.90;58.30;;;;;;6368281;27;20031;-69
2022/01/04 12:27:13;;;;;;;22.83;7.53;;;15.90;58.50;;;;;;6331815;27;20035;-69
2022/01/04 12:30:29;;;;;;;13.93;5.43;;;15.90;58.20;;;;;;6380093;27;20452;-70
2022/01/04 12:33:37;;;;;;;12.82;5.55;;;15.90;58.00;;;;;;6323920;28;20493;-69
2022/01/04 12:36:41;;;;;;;16.13;6.35;;;16.00;58.00;;;;;;6342611;28;20035;-69
2022/01/04 12:39:42;;;;;;;12.55;5.63;;;16.00;57.80;;;;;;6320674;27;20054;-69
2022/01/04 12:42:43;;;;;;;17.80;5.80;;;16.00;57.60;;;;;;6350557;27;20062;-69
2022/01/04 12:45:58;;;;;;;17.67;5.97;;;16.10;57.70;;;;;;6402574;27;20104;-69
2022/01/04 12:49:21;;;;;;;18.63;6.40;;;16.10;57.60;;;;;;6399575;27;20459;-70
2022/01/04 12:52:22;;;;;;;12.15;5.22;;;16.20;57.60;;;;;;6352659;27;20027;-68
2022/01/04 12:55:23;;;;;;;12.75;4.60;;;16.10;57.40;;;;;;6369002;27;20105;-69
2022/01/04 12:58:25;;;;;;;13.60;4.38;;;16.20;57.50;;;;;;6420143;27;20035;-69
2022/01/04 13:01:28;;;;;;;14.55;5.15;;;16.20;57.40;;;;;;6379427;27;20035;-71
2022/01/04 13:04:36;;;;;;;12.35;5.03;;;16.20;57.20;;;;;;6373220;27;20031;-70
2022/01/04 13:07:40;;;;;;;16.17;4.28;;;16.30;57.30;;;;;;6379576;27;20389;-69
2022/01/04 13:10:44;;;;;;;10.45;4.40;;;16.30;57.30;;;;;;6357132;27;20065;-70
2022/01/04 13:14:01;;;;;;;9.20;4.60;;;16.30;57.30;;;;;;6384235;27;20101;-70
2022/01/04 13:17:12;;;;;;;8.70;4.15;;;16.30;57.80;;;;;;6406435;27;20043;-69
2022/01/04 13:20:21;;;;;;;12.00;4.88;;;16.30;57.20;;;;;;6359699;27;20043;-70
2022/01/04 13:23:26;;;;;;;11.50;4.25;;;16.30;57.00;;;;;;6343051;27;20035;-69
2022/01/04 13:26:27;;;;;;;10.60;4.30;;;16.40;57.10;;;;;;6387009;27;20030;-69
2022/01/04 13:29:30;;;;;;;10.63;5.20;;;16.40;57.00;;;;;;6360473;27;20034;-69
2022/01/04 13:32:42;;;;;;;13.85;4.53;;;16.40;57.00;;;;;;6353544;27;20035;-68
2022/01/04 13:35:48;;;;;;;11.07;4.53;;;16.40;57.20;;;;;;6350623;27;20076;-68
2022/01/04 13:38:50;;;;;;;14.02;4.43;;;16.40;57.10;;;;;;6371720;27;20106;-70
2022/01/04 13:41:52;;;;;;;11.68;4.80;;;16.40;57.20;;;;;;6334719;27;20523;-69
2022/01/04 13:44:59;;;;;;;12.77;4.53;;;16.40;57.30;;;;;;6352207;27;20114;-70
2022/01/04 13:48:01;;;;;;;13.82;4.32;;;16.40;57.30;;;;;;6363142;27;20034;-70
2022/01/04 13:51:12;;;;;;;10.02;4.72;;;16.30;57.30;;;;;;6344964;27;20313;-69
2022/01/04 13:54:15;;;;;;;12.55;4.30;;;16.30;57.40;;;;;;6338463;27;20028;-69
2022/01/04 13:57:16;;;;;;;15.80;4.85;;;16.40;57.50;;;;;;6354961;27;20039;-70
2022/01/04 14:00:34;;;;;;;13.57;4.80;;;16.40;57.50;;;;;;6373116;27;20031;-69
2022/01/04 14:03:35;;;;;;;10.48;4.32;;;16.40;57.50;;;;;;6350801;27;20023;-70
2022/01/04 14:06:55;;;;;;;13.25;4.50;;;16.40;57.40;;;;;;6336537;27;20046;-69
2022/01/04 14:09:56;;;;;;;11.50;4.80;;;16.50;57.50;;;;;;6374609;27;20027;-69
2022/01/04 14:12:57;;;;;;;6.95;3.72;;;16.40;57.40;;;;;;6336939;27;20412;-69
2022/01/04 14:16:13;;;;;;;16.00;5.30;;;16.50;57.50;;;;;;6372177;27;20031;-70
2022/01/04 14:19:17;;;;;;;11.05;4.60;;;16.50;57.60;;;;;;6372683;27;20114;-69
2022/01/04 14:22:40;;;;;;;12.00;4.03;;;16.40;57.50;;;;;;6354007;27;20099;-69
2022/01/04 14:25:41;;;;;;;13.88;4.53;;;16.40;57.50;;;;;;6396497;27;20513;-69
2022/01/04 14:28:45;;;;;;;10.23;4.15;;;16.40;57.50;;;;;;6379416;27;20051;-69
2022/01/04 14:31:46;;;;;;;12.85;4.18;;;16.40;57.40;;;;;;6353601;27;20027;-69
2022/01/04 14:34:49;;;;;;;11.93;5.18;;;16.40;57.50;;;;;;6338234;27;20032;-69
2022/01/04 14:37:51;;;;;;;8.00;4.45;;;16.40;57.50;;;;;;6357793;27;20050;-70
2022/01/04 14:40:52;;;;;;;10.02;4.13;;;16.40;57.60;;;;;;6338154;27;20039;-69
2022/01/04 14:43:53;;;;;;;18.38;5.18;;;16.40;57.70;;;;;;6341972;27;20414;-69
2022/01/04 14:46:56;;;;;;;12.55;4.38;;;16.40;57.80;;;;;;6322842;27;20433;-70
2022/01/04 14:49:58;;;;;;;12.52;4.30;;;16.30;57.90;;;;;;6340498;27;20038;-69
2022/01/04 14:53:01;;;;;;;12.35;4.82;;;16.30;58.00;;;;;;6359468;27;20050;-70
2022/01/04 14:56:07;;;;;;;12.75;4.88;;;16.30;58.10;;;;;;6364693;27;20039;-70
2022/01/04 14:59:09;;;;;;;13.90;4.80;;;16.30;58.20;;;;;;6369621;27;20447;-69
2022/01/04 15:02:12;;;;;;;9.35;3.85;;;16.30;58.20;;;;;;6356926;27;20515;-70
2022/01/04 15:05:13;;;;;;;7.75;3.83;;;16.30;58.20;;;;;;6367263;27;20456;-69
2022/01/04 15:08:14;;;;;;;11.07;4.57;;;16.30;58.20;;;;;;6365202;27;20106;-69
2022/01/04 15:11:16;;;;;;;9.10;4.75;;;16.40;58.20;;;;;;6365409;27;20031;-69
2022/01/04 15:14:17;;;;;;;11.25;4.15;;;16.30;58.10;;;;;;6304164;27;20027;-68
2022/01/04 15:17:23;;;;;;;7.95;4.20;;;16.50;58.20;;;;;;6346315;27;20046;-69
2022/01/04 15:20:35;;;;;;;23.65;4.13;;;16.40;58.10;;;;;;6370680;27;20375;-69
2022/01/04 15:23:40;;;;;;;10.88;4.85;;;16.40;58.10;;;;;;6395539;27;20057;-70
2022/01/04 15:26:52;;;;;;;8.98;4.20;;;16.40;58.10;;;;;;6387191;27;20421;-69
2022/01/04 15:29:56;;;;;;;9.18;4.43;;;16.40;58.10;;;;;;6353036;27;20046;-70
2022/01/04 15:32:57;;;;;;;8.00;3.53;;;16.40;58.20;;;;;;6369217;27;20040;-70
2022/01/04 15:35:59;;;;;;;13.75;4.95;;;16.30;58.20;;;;;;6360722;27;20356;-70
2022/01/04 15:39:01;;;;;;;9.85;3.88;;;16.30;58.30;;;;;;6353866;27;20031;-69
2022/01/04 15:42:03;;;;;;;11.70;4.30;;;16.30;58.40;;;;;;6384263;27;20424;-69
2022/01/04 15:45:05;;;;;;;16.70;4.90;;;16.30;58.40;;;;;;6359024;27;20089;-69